sensor_id;sensor_type;location;lat;lon;timestamp;P1;durP1;ratioP1;P2;durP2;ratioP2
57573;SDS011;63722;48.858;21.906;2022-12-18T00:01:46;6.03;;;5.72;;
57573;SDS011;63722;48.858;21.906;2022-12-18T00:04:21;5.80;;;5.43;;
57573;SDS011;63722;48.858;21.906;2022-12-18T00:06:48;6.72;;;6.22;;
57573;SDS011;63722;48.858;21.906;2022-12-18T00:09:14;6.40;;;6.03;;
57573;SDS011;63722;48.858;21.906;2022-12-18T00:11:39;6.32;;;5.93;;
57573;SDS011;63722;48.858;21.906;2022-12-18T00:14:04;5.97;;;5.68;;
57573;SDS011;63722;48.858;21.906;2022-12-18T00:16:30;6.00;;;5.70;;
57573;SDS011;63722;48.858;21.906;2022-12-18T00:18:58;6.13;;;5.82;;
57573;SDS011;63722;48.858;21.906;2022-12-18T00:21:24;6.10;;;5.80;;
57573;SDS011;63722;48.858;21.906;2022-12-18T00:23:50;5.78;;;5.47;;
57573;SDS011;63722;48.858;21.906;2022-12-18T00:26:19;6.30;;;6.00;;
57573;SDS011;63722;48.858;21.906;2022-12-18T00:28:47;6.05;;;5.75;;
57573;SDS011;63722;48.858;21.906;2022-12-18T00:31:13;5.90;;;5.50;;
57573;SDS011;63722;48.858;21.906;2022-12-18T00:33:41;6.50;;;6.10;;
57573;SDS011;63722;48.858;21.906;2022-12-18T00:36:07;5.47;;;5.18;;
57573;SDS011;63722;48.858;21.906;2022-12-18T00:38:35;6.15;;;5.85;;
57573;SDS011;63722;48.858;21.906;2022-12-18T00:41:02;6.03;;;5.72;;
57573;SDS011;63722;48.858;21.906;2022-12-18T00:43:28;6.63;;;6.22;;
57573;SDS011;63722;48.858;21.906;2022-12-18T00:45:54;6.32;;;5.95;;
57573;SDS011;63722;48.858;21.906;2022-12-18T00:48:19;6.10;;;5.70;;
57573;SDS011;63722;48.858;21.906;2022-12-18T00:50:46;6.43;;;6.07;;
57573;SDS011;63722;48.858;21.906;2022-12-18T00:53:12;6.00;;;5.70;;
57573;SDS011;63722;48.858;21.906;2022-12-18T00:55:41;6.22;;;5.85;;
57573;SDS011;63722;48.858;21.906;2022-12-18T00:58:07;6.15;;;5.72;;
57573;SDS011;63722;48.858;21.906;2022-12-18T01:00:33;6.40;;;6.00;;
57573;SDS011;63722;48.858;21.906;2022-12-18T01:02:59;6.25;;;5.85;;
57573;SDS011;63722;48.858;21.906;2022-12-18T01:05:25;6.32;;;5.93;;
57573;SDS011;63722;48.858;21.906;2022-12-18T01:07:50;6.82;;;6.22;;
57573;SDS011;63722;48.858;21.906;2022-12-18T01:10:16;6.35;;;5.95;;
57573;SDS011;63722;48.858;21.906;2022-12-18T01:12:41;6.28;;;5.90;;
57573;SDS011;63722;48.858;21.906;2022-12-18T01:15:07;6.40;;;6.10;;
57573;SDS011;63722;48.858;21.906;2022-12-18T01:17:33;6.13;;;5.72;;
57573;SDS011;63722;48.858;21.906;2022-12-18T01:19:58;5.63;;;5.32;;
57573;SDS011;63722;48.858;21.906;2022-12-18T01:22:24;6.25;;;5.85;;
57573;SDS011;63722;48.858;21.906;2022-12-18T01:24:49;6.47;;;6.07;;
57573;SDS011;63722;48.858;21.906;2022-12-18T01:27:15;6.05;;;5.65;;
57573;SDS011;63722;48.858;21.906;2022-12-18T01:29:40;6.20;;;5.90;;
57573;SDS011;63722;48.858;21.906;2022-12-18T01:32:05;7.25;;;6.20;;
57573;SDS011;63722;48.858;21.906;2022-12-18T01:34:31;6.43;;;6.03;;
57573;SDS011;63722;48.858;21.906;2022-12-18T01:36:56;5.95;;;5.65;;
57573;SDS011;63722;48.858;21.906;2022-12-18T01:39:22;6.28;;;5.88;;
57573;SDS011;63722;48.858;21.906;2022-12-18T01:41:48;6.03;;;5.63;;
57573;SDS011;63722;48.858;21.906;2022-12-18T01:47:32;5.93;;;5.53;;
57573;SDS011;63722;48.858;21.906;2022-12-18T01:50:46;6.22;;;5.93;;
57573;SDS011;63722;48.858;21.906;2022-12-18T01:53:04;6.28;;;5.88;;
57573;SDS011;63722;48.858;21.906;2022-12-18T01:55:55;6.32;;;6.03;;
57573;SDS011;63722;48.858;21.906;2022-12-18T01:58:24;5.85;;;5.55;;
57573;SDS011;63722;48.858;21.906;2022-12-18T02:01:00;6.32;;;5.93;;
57573;SDS011;63722;48.858;21.906;2022-12-18T02:03:26;6.00;;;5.70;;
57573;SDS011;63722;48.858;21.906;2022-12-18T02:06:00;6.38;;;6.07;;
57573;SDS011;63722;48.858;21.906;2022-12-18T02:13:55;5.80;;;5.50;;
57573;SDS011;63722;48.858;21.906;2022-12-18T02:22:00;5.93;;;5.63;;
57573;SDS011;63722;48.858;21.906;2022-12-18T02:27:22;6.32;;;5.93;;
57573;SDS011;63722;48.858;21.906;2022-12-18T02:29:50;5.70;;;5.40;;
57573;SDS011;63722;48.858;21.906;2022-12-18T02:32:19;5.70;;;5.30;;
57573;SDS011;63722;48.858;21.906;2022-12-18T02:34:48;6.32;;;5.78;;
57573;SDS011;63722;48.858;21.906;2022-12-18T02:37:16;6.13;;;5.72;;
57573;SDS011;63722;48.858;21.906;2022-12-18T02:39:44;6.15;;;5.80;;
57573;SDS011;63722;48.858;21.906;2022-12-18T02:42:13;6.55;;;6.15;;
57573;SDS011;63722;48.858;21.906;2022-12-18T02:44:43;6.32;;;5.90;;
57573;SDS011;63722;48.858;21.906;2022-12-18T02:47:11;6.20;;;5.70;;
57573;SDS011;63722;48.858;21.906;2022-12-18T02:52:29;6.22;;;5.85;;
57573;SDS011;63722;48.858;21.906;2022-12-18T03:04:00;6.20;;;5.70;;
57573;SDS011;63722;48.858;21.906;2022-12-18T03:09:06;6.03;;;5.68;;
57573;SDS011;63722;48.858;21.906;2022-12-18T03:11:36;6.18;;;5.88;;
57573;SDS011;63722;48.858;21.906;2022-12-18T03:14:23;5.97;;;5.68;;
57573;SDS011;63722;48.858;21.906;2022-12-18T03:16:54;6.25;;;5.85;;
57573;SDS011;63722;48.858;21.906;2022-12-18T03:19:25;5.75;;;5.45;;
57573;SDS011;63722;48.858;21.906;2022-12-18T03:21:55;6.18;;;5.78;;
57573;SDS011;63722;48.858;21.906;2022-12-18T03:24:22;6.20;;;5.70;;
57573;SDS011;63722;48.858;21.906;2022-12-18T03:26:51;6.15;;;5.75;;
57573;SDS011;63722;48.858;21.906;2022-12-18T03:29:21;5.43;;;5.13;;
57573;SDS011;63722;48.858;21.906;2022-12-18T03:31:57;5.85;;;5.55;;
57573;SDS011;63722;48.858;21.906;2022-12-18T03:34:30;6.25;;;5.95;;
57573;SDS011;63722;48.858;21.906;2022-12-18T03:36:57;5.88;;;5.57;;
57573;SDS011;63722;48.858;21.906;2022-12-18T03:39:23;6.20;;;5.90;;
57573;SDS011;63722;48.858;21.906;2022-12-18T03:41:51;6.22;;;5.82;;
57573;SDS011;63722;48.858;21.906;2022-12-18T03:47:24;6.25;;;5.85;;
57573;SDS011;63722;48.858;21.906;2022-12-18T03:55:30;5.97;;;5.57;;
57573;SDS011;63722;48.858;21.906;2022-12-18T03:57:59;5.72;;;5.43;;
57573;SDS011;63722;48.858;21.906;2022-12-18T04:00:28;5.95;;;5.65;;
57573;SDS011;63722;48.858;21.906;2022-12-18T04:02:55;5.93;;;5.63;;
57573;SDS011;63722;48.858;21.906;2022-12-18T04:05:22;6.07;;;5.35;;
57573;SDS011;63722;48.858;21.906;2022-12-18T04:07:50;6.15;;;5.65;;
57573;SDS011;63722;48.858;21.906;2022-12-18T04:10:18;6.00;;;5.70;;
57573;SDS011;63722;48.858;21.906;2022-12-18T04:12:44;5.88;;;5.53;;
57573;SDS011;63722;48.858;21.906;2022-12-18T04:15:10;6.15;;;5.75;;
57573;SDS011;63722;48.858;21.906;2022-12-18T04:17:36;5.63;;;5.32;;
57573;SDS011;63722;48.858;21.906;2022-12-18T04:20:02;6.13;;;5.72;;
57573;SDS011;63722;48.858;21.906;2022-12-18T04:22:28;5.97;;;5.57;;
57573;SDS011;63722;48.858;21.906;2022-12-18T04:24:53;6.25;;;5.93;;
57573;SDS011;63722;48.858;21.906;2022-12-18T04:27:18;5.85;;;5.55;;
57573;SDS011;63722;48.858;21.906;2022-12-18T04:29:44;5.80;;;5.47;;
57573;SDS011;63722;48.858;21.906;2022-12-18T04:32:09;6.18;;;5.78;;
57573;SDS011;63722;48.858;21.906;2022-12-18T04:34:34;6.32;;;6.00;;
57573;SDS011;63722;48.858;21.906;2022-12-18T04:37:00;6.30;;;5.90;;
57573;SDS011;63722;48.858;21.906;2022-12-18T04:39:25;6.20;;;5.90;;
57573;SDS011;63722;48.858;21.906;2022-12-18T04:41:51;6.63;;;6.20;;
57573;SDS011;63722;48.858;21.906;2022-12-18T04:44:16;6.50;;;6.13;;
57573;SDS011;63722;48.858;21.906;2022-12-18T04:46:42;5.75;;;5.45;;
57573;SDS011;63722;48.858;21.906;2022-12-18T04:49:07;6.43;;;6.03;;
57573;SDS011;63722;48.858;21.906;2022-12-18T04:51:32;6.30;;;6.00;;
57573;SDS011;63722;48.858;21.906;2022-12-18T04:53:58;6.82;;;6.22;;
57573;SDS011;63722;48.858;21.906;2022-12-18T04:56:23;6.18;;;5.78;;
57573;SDS011;63722;48.858;21.906;2022-12-18T04:58:49;5.90;;;5.60;;
57573;SDS011;63722;48.858;21.906;2022-12-18T05:01:15;6.25;;;5.93;;
57573;SDS011;63722;48.858;21.906;2022-12-18T05:03:41;5.63;;;5.32;;
57573;SDS011;63722;48.858;21.906;2022-12-18T05:06:07;5.85;;;5.45;;
57573;SDS011;63722;48.858;21.906;2022-12-18T05:08:33;6.20;;;5.68;;
57573;SDS011;63722;48.858;21.906;2022-12-18T05:11:19;6.68;;;6.07;;
57573;SDS011;63722;48.858;21.906;2022-12-18T05:13:44;6.03;;;5.72;;
57573;SDS011;63722;48.858;21.906;2022-12-18T05:16:10;6.47;;;6.15;;
57573;SDS011;63722;48.858;21.906;2022-12-18T05:18:36;6.80;;;6.40;;
57573;SDS011;63722;48.858;21.906;2022-12-18T05:21:02;6.25;;;5.90;;
57573;SDS011;63722;48.858;21.906;2022-12-18T05:23:28;6.47;;;6.18;;
57573;SDS011;63722;48.858;21.906;2022-12-18T05:25:54;6.43;;;6.03;;
57573;SDS011;63722;48.858;21.906;2022-12-18T05:28:22;7.30;;;6.90;;
57573;SDS011;63722;48.858;21.906;2022-12-18T05:30:50;6.03;;;5.63;;
57573;SDS011;63722;48.858;21.906;2022-12-18T05:33:17;6.05;;;5.65;;
57573;SDS011;63722;48.858;21.906;2022-12-18T05:35:43;6.70;;;6.30;;
57573;SDS011;63722;48.858;21.906;2022-12-18T05:38:09;6.93;;;6.45;;
57573;SDS011;63722;48.858;21.906;2022-12-18T05:40:34;6.30;;;5.97;;
57573;SDS011;63722;48.858;21.906;2022-12-18T05:42:59;6.35;;;5.97;;
57573;SDS011;63722;48.858;21.906;2022-12-18T05:45:25;6.32;;;5.93;;
57573;SDS011;63722;48.858;21.906;2022-12-18T05:47:50;6.90;;;6.50;;
57573;SDS011;63722;48.858;21.906;2022-12-18T05:50:15;6.80;;;5.95;;
57573;SDS011;63722;48.858;21.906;2022-12-18T05:52:41;7.10;;;6.70;;
57573;SDS011;63722;48.858;21.906;2022-12-18T05:55:06;6.20;;;5.90;;
57573;SDS011;63722;48.858;21.906;2022-12-18T05:57:32;6.85;;;6.25;;
57573;SDS011;63722;48.858;21.906;2022-12-18T05:59:57;6.85;;;6.45;;
57573;SDS011;63722;48.858;21.906;2022-12-18T06:02:23;6.15;;;5.75;;
57573;SDS011;63722;48.858;21.906;2022-12-18T06:04:48;6.40;;;5.82;;
57573;SDS011;63722;48.858;21.906;2022-12-18T06:07:14;6.43;;;5.97;;
57573;SDS011;63722;48.858;21.906;2022-12-18T06:09:39;6.97;;;6.45;;
57573;SDS011;63722;48.858;21.906;2022-12-18T06:12:04;6.95;;;6.32;;
57573;SDS011;63722;48.858;21.906;2022-12-18T06:14:30;6.70;;;6.20;;
57573;SDS011;63722;48.858;21.906;2022-12-18T06:16:55;6.85;;;6.43;;
57573;SDS011;63722;48.858;21.906;2022-12-18T06:19:21;6.43;;;5.97;;
57573;SDS011;63722;48.858;21.906;2022-12-18T06:21:46;6.85;;;6.30;;
57573;SDS011;63722;48.858;21.906;2022-12-18T06:24:12;7.03;;;6.53;;
57573;SDS011;63722;48.858;21.906;2022-12-18T06:26:38;6.68;;;6.30;;
57573;SDS011;63722;48.858;21.906;2022-12-18T06:29:04;7.35;;;6.95;;
57573;SDS011;63722;48.858;21.906;2022-12-18T06:31:30;7.32;;;6.93;;
57573;SDS011;63722;48.858;21.906;2022-12-18T06:33:55;7.20;;;6.70;;
57573;SDS011;63722;48.858;21.906;2022-12-18T06:36:20;7.15;;;6.72;;
57573;SDS011;63722;48.858;21.906;2022-12-18T06:38:46;8.15;;;6.40;;
57573;SDS011;63722;48.858;21.906;2022-12-18T06:41:19;6.88;;;6.38;;
57573;SDS011;63722;48.858;21.906;2022-12-18T06:43:45;6.55;;;6.15;;
57573;SDS011;63722;48.858;21.906;2022-12-18T06:46:11;6.38;;;5.97;;
57573;SDS011;63722;48.858;21.906;2022-12-18T06:48:37;7.30;;;6.75;;
57573;SDS011;63722;48.858;21.906;2022-12-18T06:51:02;6.70;;;6.15;;
57573;SDS011;63722;48.858;21.906;2022-12-18T06:53:28;7.63;;;6.93;;
57573;SDS011;63722;48.858;21.906;2022-12-18T06:56:01;6.65;;;6.25;;
57573;SDS011;63722;48.858;21.906;2022-12-18T06:58:28;7.25;;;6.82;;
57573;SDS011;63722;48.858;21.906;2022-12-18T07:00:53;7.03;;;6.57;;
57573;SDS011;63722;48.858;21.906;2022-12-18T07:03:18;6.90;;;6.50;;
57573;SDS011;63722;48.858;21.906;2022-12-18T07:05:44;6.85;;;6.45;;
57573;SDS011;63722;48.858;21.906;2022-12-18T07:08:09;7.45;;;6.97;;
57573;SDS011;63722;48.858;21.906;2022-12-18T07:10:40;7.35;;;6.85;;
57573;SDS011;63722;48.858;21.906;2022-12-18T07:13:07;7.22;;;6.72;;
57573;SDS011;63722;48.858;21.906;2022-12-18T07:15:32;7.63;;;6.80;;
57573;SDS011;63722;48.858;21.906;2022-12-18T07:17:58;7.47;;;7.00;;
57573;SDS011;63722;48.858;21.906;2022-12-18T07:20:23;7.22;;;6.80;;
57573;SDS011;63722;48.858;21.906;2022-12-18T07:22:48;7.03;;;6.53;;
57573;SDS011;63722;48.858;21.906;2022-12-18T07:25:14;6.72;;;6.32;;
57573;SDS011;63722;48.858;21.906;2022-12-18T07:27:39;6.95;;;6.55;;
57573;SDS011;63722;48.858;21.906;2022-12-18T07:30:05;6.82;;;6.43;;
57573;SDS011;63722;48.858;21.906;2022-12-18T07:32:31;7.20;;;6.43;;
57573;SDS011;63722;48.858;21.906;2022-12-18T07:34:56;7.75;;;7.25;;
57573;SDS011;63722;48.858;21.906;2022-12-18T07:37:21;8.05;;;7.30;;
57573;SDS011;63722;48.858;21.906;2022-12-18T07:39:47;7.38;;;6.78;;
57573;SDS011;63722;48.858;21.906;2022-12-18T07:42:12;7.30;;;6.63;;
57573;SDS011;63722;48.858;21.906;2022-12-18T07:47:20;7.78;;;7.07;;
57573;SDS011;63722;48.858;21.906;2022-12-18T07:49:46;7.20;;;6.75;;
57573;SDS011;63722;48.858;21.906;2022-12-18T07:52:11;7.22;;;6.82;;
57573;SDS011;63722;48.858;21.906;2022-12-18T07:54:37;7.65;;;7.25;;
57573;SDS011;63722;48.858;21.906;2022-12-18T07:57:03;7.25;;;6.85;;
57573;SDS011;63722;48.858;21.906;2022-12-18T07:59:28;7.50;;;7.05;;
57573;SDS011;63722;48.858;21.906;2022-12-18T08:01:53;7.72;;;7.25;;
57573;SDS011;63722;48.858;21.906;2022-12-18T08:04:19;7.03;;;6.63;;
57573;SDS011;63722;48.858;21.906;2022-12-18T08:06:44;7.22;;;6.82;;
57573;SDS011;63722;48.858;21.906;2022-12-18T08:09:10;8.13;;;7.63;;
57573;SDS011;63722;48.858;21.906;2022-12-18T08:11:35;7.50;;;7.00;;
57573;SDS011;63722;48.858;21.906;2022-12-18T08:14:01;7.28;;;6.88;;
57573;SDS011;63722;48.858;21.906;2022-12-18T08:16:26;7.55;;;7.10;;
57573;SDS011;63722;48.858;21.906;2022-12-18T08:18:52;7.68;;;7.18;;
57573;SDS011;63722;48.858;21.906;2022-12-18T08:21:19;7.28;;;6.88;;
57573;SDS011;63722;48.858;21.906;2022-12-18T08:23:48;7.68;;;7.18;;
57573;SDS011;63722;48.858;21.906;2022-12-18T08:26:14;7.85;;;7.35;;
57573;SDS011;63722;48.858;21.906;2022-12-18T08:28:41;7.13;;;6.72;;
57573;SDS011;63722;48.858;21.906;2022-12-18T08:31:07;6.97;;;6.57;;
57573;SDS011;63722;48.858;21.906;2022-12-18T08:33:33;7.97;;;7.28;;
57573;SDS011;63722;48.858;21.906;2022-12-18T08:35:59;7.53;;;7.07;;
57573;SDS011;63722;48.858;21.906;2022-12-18T08:38:25;7.75;;;7.15;;
57573;SDS011;63722;48.858;21.906;2022-12-18T08:41:00;7.55;;;7.05;;
57573;SDS011;63722;48.858;21.906;2022-12-18T08:43:26;7.78;;;7.28;;
57573;SDS011;63722;48.858;21.906;2022-12-18T08:46:18;8.52;;;7.93;;
57573;SDS011;63722;48.858;21.906;2022-12-18T08:48:44;7.38;;;6.97;;
57573;SDS011;63722;48.858;21.906;2022-12-18T08:51:10;7.35;;;6.85;;
57573;SDS011;63722;48.858;21.906;2022-12-18T08:53:36;7.78;;;7.30;;
57573;SDS011;63722;48.858;21.906;2022-12-18T08:56:02;7.65;;;7.25;;
57573;SDS011;63722;48.858;21.906;2022-12-18T08:58:28;8.23;;;7.65;;
57573;SDS011;63722;48.858;21.906;2022-12-18T09:00:59;7.30;;;6.90;;
57573;SDS011;63722;48.858;21.906;2022-12-18T09:03:25;7.55;;;6.95;;
57573;SDS011;63722;48.858;21.906;2022-12-18T09:05:51;7.60;;;7.10;;
57573;SDS011;63722;48.858;21.906;2022-12-18T09:08:16;7.78;;;7.07;;
57573;SDS011;63722;48.858;21.906;2022-12-18T09:10:42;8.02;;;7.35;;
57573;SDS011;63722;48.858;21.906;2022-12-18T09:13:12;7.82;;;7.32;;
57573;SDS011;63722;48.858;21.906;2022-12-18T09:15:45;7.82;;;7.32;;
57573;SDS011;63722;48.858;21.906;2022-12-18T09:18:12;8.60;;;8.00;;
57573;SDS011;63722;48.858;21.906;2022-12-18T09:20:39;8.07;;;7.47;;
57573;SDS011;63722;48.858;21.906;2022-12-18T09:23:05;7.60;;;7.10;;
57573;SDS011;63722;48.858;21.906;2022-12-18T09:25:30;8.35;;;7.68;;
57573;SDS011;63722;48.858;21.906;2022-12-18T09:27:58;7.70;;;7.25;;
57573;SDS011;63722;48.858;21.906;2022-12-18T09:30:24;8.02;;;7.50;;
57573;SDS011;63722;48.858;21.906;2022-12-18T09:32:50;7.95;;;7.45;;
57573;SDS011;63722;48.858;21.906;2022-12-18T09:35:15;7.70;;;7.20;;
57573;SDS011;63722;48.858;21.906;2022-12-18T09:37:40;8.15;;;7.60;;
57573;SDS011;63722;48.858;21.906;2022-12-18T09:40:12;8.48;;;7.97;;
57573;SDS011;63722;48.858;21.906;2022-12-18T09:42:57;8.05;;;7.55;;
57573;SDS011;63722;48.858;21.906;2022-12-18T09:45:25;8.48;;;7.90;;
57573;SDS011;63722;48.858;21.906;2022-12-18T09:47:51;7.82;;;7.32;;
57573;SDS011;63722;48.858;21.906;2022-12-18T09:50:24;8.00;;;7.25;;
57573;SDS011;63722;48.858;21.906;2022-12-18T09:52:57;6.95;;;6.55;;
57573;SDS011;63722;48.858;21.906;2022-12-18T09:58:02;7.57;;;7.07;;
57573;SDS011;63722;48.858;21.906;2022-12-18T10:00:32;8.35;;;7.85;;
57573;SDS011;63722;48.858;21.906;2022-12-18T10:03:08;8.00;;;7.50;;
57573;SDS011;63722;48.858;21.906;2022-12-18T10:08:29;7.95;;;7.45;;
57573;SDS011;63722;48.858;21.906;2022-12-18T10:13:50;8.18;;;7.65;;
57573;SDS011;63722;48.858;21.906;2022-12-18T10:21:44;7.40;;;7.00;;
57573;SDS011;63722;48.858;21.906;2022-12-18T10:27:09;7.50;;;7.10;;
57573;SDS011;63722;48.858;21.906;2022-12-18T10:29:39;7.95;;;7.38;;
57573;SDS011;63722;48.858;21.906;2022-12-18T10:32:07;7.93;;;7.43;;
57573;SDS011;63722;48.858;21.906;2022-12-18T10:34:39;8.35;;;7.65;;
57573;SDS011;63722;48.858;21.906;2022-12-18T10:37:06;7.55;;;7.00;;
57573;SDS011;63722;48.858;21.906;2022-12-18T10:39:40;8.57;;;7.97;;
57573;SDS011;63722;48.858;21.906;2022-12-18T10:42:10;8.25;;;7.65;;
57573;SDS011;63722;48.858;21.906;2022-12-18T10:44:41;7.75;;;7.28;;
57573;SDS011;63722;48.858;21.906;2022-12-18T10:47:06;7.88;;;7.28;;
57573;SDS011;63722;48.858;21.906;2022-12-18T10:49:41;7.85;;;7.45;;
57573;SDS011;63722;48.858;21.906;2022-12-18T10:54:45;8.05;;;7.65;;
57573;SDS011;63722;48.858;21.906;2022-12-18T10:59:51;7.60;;;7.18;;
57573;SDS011;63722;48.858;21.906;2022-12-18T11:02:34;8.05;;;7.45;;
57573;SDS011;63722;48.858;21.906;2022-12-18T11:05:02;8.00;;;7.50;;
57573;SDS011;63722;48.858;21.906;2022-12-18T11:07:48;8.38;;;7.10;;
57573;SDS011;63722;48.858;21.906;2022-12-18T11:10:16;7.88;;;7.25;;
57573;SDS011;63722;48.858;21.906;2022-12-18T11:12:43;7.78;;;7.25;;
57573;SDS011;63722;48.858;21.906;2022-12-18T11:15:15;8.27;;;7.68;;
57573;SDS011;63722;48.858;21.906;2022-12-18T11:17:44;7.90;;;7.40;;
57573;SDS011;63722;48.858;21.906;2022-12-18T11:20:26;7.93;;;7.32;;
57573;SDS011;63722;48.858;21.906;2022-12-18T11:22:56;7.90;;;7.43;;
57573;SDS011;63722;48.858;21.906;2022-12-18T11:25:23;7.90;;;7.40;;
57573;SDS011;63722;48.858;21.906;2022-12-18T11:28:34;7.68;;;7.18;;
57573;SDS011;63722;48.858;21.906;2022-12-18T11:33:42;8.20;;;7.60;;
57573;SDS011;63722;48.858;21.906;2022-12-18T11:36:11;7.88;;;7.38;;
57573;SDS011;63722;48.858;21.906;2022-12-18T11:38:39;7.63;;;7.07;;
57573;SDS011;63722;48.858;21.906;2022-12-18T11:44:13;8.38;;;7.78;;
57573;SDS011;63722;48.858;21.906;2022-12-18T11:46:46;7.50;;;7.05;;
57573;SDS011;63722;48.858;21.906;2022-12-18T11:49:24;8.02;;;7.53;;
57573;SDS011;63722;48.858;21.906;2022-12-18T11:54:36;8.00;;;7.50;;
57573;SDS011;63722;48.858;21.906;2022-12-18T11:57:08;8.02;;;7.53;;
57573;SDS011;63722;48.858;21.906;2022-12-18T11:59:46;7.97;;;7.28;;
57573;SDS011;63722;48.858;21.906;2022-12-18T12:07:44;7.47;;;7.07;;
57573;SDS011;63722;48.858;21.906;2022-12-18T12:13:26;7.72;;;7.22;;
57573;SDS011;63722;48.858;21.906;2022-12-18T12:16:15;7.80;;;7.30;;
57573;SDS011;63722;48.858;21.906;2022-12-18T12:19:08;7.88;;;7.38;;
57573;SDS011;63722;48.858;21.906;2022-12-18T12:21:55;7.97;;;7.47;;
57573;SDS011;63722;48.858;21.906;2022-12-18T12:24:37;7.78;;;7.22;;
57573;SDS011;63722;48.858;21.906;2022-12-18T12:30:20;7.90;;;7.28;;
57573;SDS011;63722;48.858;21.906;2022-12-18T12:36:00;8.13;;;7.55;;
57573;SDS011;63722;48.858;21.906;2022-12-18T12:38:28;8.75;;;7.90;;
57573;SDS011;63722;48.858;21.906;2022-12-18T12:40:59;7.93;;;7.38;;
57573;SDS011;63722;48.858;21.906;2022-12-18T12:43:36;7.65;;;7.15;;
57573;SDS011;63722;48.858;21.906;2022-12-18T12:46:07;7.63;;;7.15;;
57573;SDS011;63722;48.858;21.906;2022-12-18T12:48:36;7.47;;;6.85;;
57573;SDS011;63722;48.858;21.906;2022-12-18T12:51:16;7.78;;;7.18;;
57573;SDS011;63722;48.858;21.906;2022-12-18T12:53:46;7.65;;;7.05;;
57573;SDS011;63722;48.858;21.906;2022-12-18T12:56:13;8.32;;;7.75;;
57573;SDS011;63722;48.858;21.906;2022-12-18T12:59:02;7.88;;;7.35;;
57573;SDS011;63722;48.858;21.906;2022-12-18T13:01:36;7.30;;;6.68;;
57573;SDS011;63722;48.858;21.906;2022-12-18T13:04:25;7.93;;;7.38;;
57573;SDS011;63722;48.858;21.906;2022-12-18T13:12:57;7.18;;;6.78;;
57573;SDS011;63722;48.858;21.906;2022-12-18T13:15:47;8.20;;;7.60;;
57573;SDS011;63722;48.858;21.906;2022-12-18T13:25:52;8.25;;;7.47;;
57573;SDS011;63722;48.858;21.906;2022-12-18T13:31:15;7.80;;;7.20;;
57573;SDS011;63722;48.858;21.906;2022-12-18T13:36:48;8.43;;;7.80;;
57573;SDS011;63722;48.858;21.906;2022-12-18T13:41:43;8.13;;;7.43;;
57573;SDS011;63722;48.858;21.906;2022-12-18T13:46:43;7.68;;;7.18;;
57573;SDS011;63722;48.858;21.906;2022-12-18T13:51:38;8.50;;;7.95;;
57573;SDS011;63722;48.858;21.906;2022-12-18T13:54:16;7.40;;;6.90;;
57573;SDS011;63722;48.858;21.906;2022-12-18T13:56:47;8.05;;;7.45;;
57573;SDS011;63722;48.858;21.906;2022-12-18T14:01:45;8.02;;;7.25;;
57573;SDS011;63722;48.858;21.906;2022-12-18T14:04:33;7.82;;;7.32;;
57573;SDS011;63722;48.858;21.906;2022-12-18T14:07:07;7.95;;;7.30;;
57573;SDS011;63722;48.858;21.906;2022-12-18T14:09:40;7.45;;;6.95;;
57573;SDS011;63722;48.858;21.906;2022-12-18T14:17:51;8.07;;;7.57;;
57573;SDS011;63722;48.858;21.906;2022-12-18T14:20:25;7.47;;;6.97;;
57573;SDS011;63722;48.858;21.906;2022-12-18T14:22:52;7.53;;;6.95;;
57573;SDS011;63722;48.858;21.906;2022-12-18T14:25:19;8.02;;;7.43;;
57573;SDS011;63722;48.858;21.906;2022-12-18T14:27:53;8.73;;;7.93;;
57573;SDS011;63722;48.858;21.906;2022-12-18T14:30:41;7.70;;;7.18;;
57573;SDS011;63722;48.858;21.906;2022-12-18T14:35:34;7.93;;;7.43;;
57573;SDS011;63722;48.858;21.906;2022-12-18T14:38:36;8.18;;;7.35;;
57573;SDS011;63722;48.858;21.906;2022-12-18T14:40:54;7.35;;;6.75;;
57573;SDS011;63722;48.858;21.906;2022-12-18T14:43:22;7.93;;;7.15;;
57573;SDS011;63722;48.858;21.906;2022-12-18T14:45:47;7.65;;;7.00;;
57573;SDS011;63722;48.858;21.906;2022-12-18T14:48:19;7.35;;;6.82;;
57573;SDS011;63722;48.858;21.906;2022-12-18T14:50:54;7.65;;;7.07;;
57573;SDS011;63722;48.858;21.906;2022-12-18T14:53:34;6.55;;;6.18;;
57573;SDS011;63722;48.858;21.906;2022-12-18T14:56:01;7.68;;;7.15;;
57573;SDS011;63722;48.858;21.906;2022-12-18T14:58:27;7.60;;;7.10;;
57573;SDS011;63722;48.858;21.906;2022-12-18T15:00:53;7.95;;;7.32;;
57573;SDS011;63722;48.858;21.906;2022-12-18T15:03:19;7.03;;;6.63;;
57573;SDS011;63722;48.858;21.906;2022-12-18T15:05:45;7.07;;;6.57;;
57573;SDS011;63722;48.858;21.906;2022-12-18T15:08:27;7.45;;;7.05;;
57573;SDS011;63722;48.858;21.906;2022-12-18T15:11:27;7.15;;;6.65;;
57573;SDS011;63722;48.858;21.906;2022-12-18T15:13:53;7.25;;;6.75;;
57573;SDS011;63722;48.858;21.906;2022-12-18T15:16:18;8.43;;;7.07;;
57573;SDS011;63722;48.858;21.906;2022-12-18T15:18:44;7.68;;;7.07;;
57573;SDS011;63722;48.858;21.906;2022-12-18T15:21:10;7.78;;;7.05;;
57573;SDS011;63722;48.858;21.906;2022-12-18T15:26:09;7.75;;;7.07;;
57573;SDS011;63722;48.858;21.906;2022-12-18T15:28:37;7.25;;;6.75;;
57573;SDS011;63722;48.858;21.906;2022-12-18T15:36:25;7.57;;;7.07;;
57573;SDS011;63722;48.858;21.906;2022-12-18T15:38:52;7.35;;;6.75;;
57573;SDS011;63722;48.858;21.906;2022-12-18T15:41:19;8.55;;;7.05;;
57573;SDS011;63722;48.858;21.906;2022-12-18T15:43:50;7.10;;;6.60;;
57573;SDS011;63722;48.858;21.906;2022-12-18T15:46:18;7.20;;;6.80;;
57573;SDS011;63722;48.858;21.906;2022-12-18T15:48:46;6.85;;;6.25;;
57573;SDS011;63722;48.858;21.906;2022-12-18T15:51:52;7.82;;;6.85;;
57573;SDS011;63722;48.858;21.906;2022-12-18T15:54:13;7.00;;;6.40;;
57573;SDS011;63722;48.858;21.906;2022-12-18T15:56:41;7.63;;;6.93;;
57573;SDS011;63722;48.858;21.906;2022-12-18T15:59:25;7.25;;;6.75;;
57573;SDS011;63722;48.858;21.906;2022-12-18T16:01:51;7.32;;;6.60;;
57573;SDS011;63722;48.858;21.906;2022-12-18T16:04:18;6.93;;;6.47;;
57573;SDS011;63722;48.858;21.906;2022-12-18T16:06:45;7.18;;;6.65;;
57573;SDS011;63722;48.858;21.906;2022-12-18T16:09:11;6.45;;;6.00;;
57573;SDS011;63722;48.858;21.906;2022-12-18T16:11:36;6.90;;;6.40;;
57573;SDS011;63722;48.858;21.906;2022-12-18T16:17:02;6.70;;;6.30;;
57573;SDS011;63722;48.858;21.906;2022-12-18T16:19:30;7.53;;;7.00;;
57573;SDS011;63722;48.858;21.906;2022-12-18T16:21:56;7.07;;;6.57;;
57573;SDS011;63722;48.858;21.906;2022-12-18T16:24:26;6.90;;;6.50;;
57573;SDS011;63722;48.858;21.906;2022-12-18T16:26:56;7.60;;;7.10;;
57573;SDS011;63722;48.858;21.906;2022-12-18T16:29:23;6.93;;;6.43;;
57573;SDS011;63722;48.858;21.906;2022-12-18T16:31:52;6.60;;;6.20;;
57573;SDS011;63722;48.858;21.906;2022-12-18T16:34:22;6.85;;;6.43;;
57573;SDS011;63722;48.858;21.906;2022-12-18T16:36:56;6.93;;;6.50;;
57573;SDS011;63722;48.858;21.906;2022-12-18T16:39:23;7.22;;;6.72;;
57573;SDS011;63722;48.858;21.906;2022-12-18T16:41:49;7.00;;;6.50;;
57573;SDS011;63722;48.858;21.906;2022-12-18T16:44:15;7.13;;;6.65;;
57573;SDS011;63722;48.858;21.906;2022-12-18T16:46:41;6.90;;;6.50;;
57573;SDS011;63722;48.858;21.906;2022-12-18T16:49:10;6.00;;;5.70;;
57573;SDS011;63722;48.858;21.906;2022-12-18T16:51:36;6.53;;;6.03;;
57573;SDS011;63722;48.858;21.906;2022-12-18T16:54:02;6.75;;;6.35;;
57573;SDS011;63722;48.858;21.906;2022-12-18T16:56:28;7.18;;;6.57;;
57573;SDS011;63722;48.858;21.906;2022-12-18T16:58:54;6.72;;;6.32;;
57573;SDS011;63722;48.858;21.906;2022-12-18T17:01:21;6.72;;;6.25;;